Aviation Digital Data Service (ADDS)

Output produced by METARs form (2104 UTC 20 October 2018)
found at http://www.aviationweather.gov/metar/data/
 
METAR text: KTAZ 202055Z AUTO 31022G34KT 10SM SCT070 13/M04 A3010 RMK AO2 T01331036
Conditions at: KTAZ (TAYLORVILLE , IL, US) observed 2055 UTC 20 October 2018
Temperature: 13.3°C (56°F)
Dewpoint: -3.6°C (26°F) [RH = 31%]
Pressure (altimeter): 30.10 inches Hg (1019.4 mb)
Winds: from the NW (310 degrees) at 25 MPH (22 knots; 11.3 m/s)
gusting to 39 MPH (34 knots; 17.5 m/s)
Visibility: 10 or more miles (16+ km)
Ceiling: at least 12,000 feet AGL
Clouds: scattered clouds at 7000 feet AGL
Weather: automated observation with no human augmentation;
there may or may not be significant weather present at this time